createdAt,value
2023-02-12T00:00:00.148Z,103854.97
2023-02-12T00:02:27.231Z,103858.50
2023-02-12T00:04:53.736Z,103859.56
2023-02-12T00:07:20.228Z,103853.28
2023-02-12T00:09:46.673Z,103844.28
2023-02-12T00:12:13.167Z,103845.53
2023-02-12T00:14:39.821Z,103847.59
2023-02-12T00:17:06.399Z,103847.59
2023-02-12T00:19:32.979Z,103849.31
2023-02-12T00:21:59.483Z,103854.09
2023-02-12T00:24:27.077Z,103848.03
2023-02-12T00:26:53.620Z,103853.47
2023-02-12T00:29:20.123Z,103853.66
2023-02-12T00:31:46.766Z,103860.75
2023-02-12T00:34:13.470Z,103853.66
2023-02-12T00:36:39.968Z,103862.03
2023-02-12T00:39:06.563Z,103844.88
2023-02-12T00:41:33.250Z,103845.06
2023-02-12T00:43:59.764Z,103850.31
2023-02-12T00:46:26.493Z,103850.50
2023-02-12T00:48:53.070Z,103844.44
2023-02-12T00:51:19.635Z,103849.91
2023-02-12T00:53:46.142Z,103844.63
2023-02-12T00:56:12.906Z,103844.63
2023-02-12T00:58:39.432Z,103845.69
2023-02-12T01:01:06.035Z,103853.03
2023-02-12T01:03:32.939Z,103837.75
2023-02-12T01:05:59.796Z,103837.75
2023-02-12T01:08:26.431Z,103843.38
2023-02-12T01:10:58.771Z,103846.94
2023-02-12T01:13:26.009Z,103832.91
2023-02-12T01:16:03.915Z,103840.88
2023-02-12T01:18:30.627Z,103845.47
2023-02-12T01:20:58.934Z,103844.00
2023-02-12T01:23:25.659Z,103845.66
2023-02-12T01:25:52.696Z,103835.00
2023-02-12T01:28:19.487Z,103851.34
2023-02-12T01:30:46.284Z,103850.69
2023-02-12T01:33:12.798Z,103842.53
2023-02-12T01:35:39.310Z,103836.25
2023-02-12T01:40:32.323Z,103845.66
2023-02-12T01:43:02.070Z,103839.38
2023-02-12T01:45:28.470Z,103846.72
2023-02-12T01:47:54.947Z,103850.47
2023-02-12T01:50:21.554Z,103845.03
2023-02-12T01:52:53.235Z,103842.50
2023-02-12T01:55:20.612Z,103842.50
2023-02-12T01:57:48.931Z,103840.00
2023-02-12T02:00:21.691Z,103841.06
2023-02-12T02:02:53.695Z,103838.34
2023-02-12T02:05:31.062Z,103847.56
2023-02-12T02:07:57.589Z,103853.00
2023-02-12T02:10:24.088Z,103854.22
2023-02-12T02:13:09.417Z,103845.84
2023-02-12T02:15:37.998Z,103860.50
2023-02-12T02:18:14.752Z,103856.13
2023-02-12T02:21:00.106Z,103860.72
2023-02-12T02:24:05.015Z,103846.25
2023-02-12T02:26:37.375Z,103846.47
2023-02-12T02:29:33.306Z,103846.47
2023-02-12T02:32:05.956Z,103850.25
2023-02-12T02:34:43.607Z,103849.59
2023-02-12T02:37:23.119Z,103859.66
2023-02-12T02:39:55.256Z,103851.28
2023-02-12T02:42:48.141Z,103842.50
2023-02-12T02:45:29.814Z,103849.81
2023-02-12T02:48:02.493Z,103850.00
2023-02-12T02:50:34.751Z,103846.44
2023-02-12T02:53:52.336Z,103846.44
2023-02-12T02:56:22.229Z,103841.22
2023-02-12T02:58:55.180Z,103852.09
2023-02-12T03:01:29.719Z,103839.56
2023-02-12T03:04:03.693Z,103828.69
2023-02-12T03:06:55.078Z,103828.03
2023-02-12T03:09:26.649Z,103831.81
2023-02-12T03:11:58.357Z,103837.25
2023-02-12T03:14:35.987Z,103840.16
2023-02-12T03:17:13.567Z,103841.84
2023-02-12T03:19:47.002Z,103839.31
2023-02-12T03:22:31.920Z,103846.63
2023-02-12T03:25:35.421Z,103832.19
2023-02-12T03:28:13.747Z,103837.00
2023-02-12T03:30:49.421Z,103832.41
2023-02-12T03:34:10.311Z,103835.13
2023-02-12T03:36:45.819Z,103838.88
2023-02-12T03:39:23.789Z,103841.59
2023-02-12T03:42:00.334Z,103839.09
2023-02-12T03:44:53.652Z,103840.16
2023-02-12T03:47:55.429Z,103827.56
2023-02-12T03:50:31.848Z,103831.34
2023-02-12T03:52:58.529Z,103827.56
2023-02-12T03:55:25.704Z,103826.94
2023-02-12T03:57:58.892Z,103831.75
2023-02-12T04:00:25.780Z,103840.75
2023-02-12T04:02:54.429Z,103829.84
2023-02-12T04:05:24.259Z,103842.63
2023-02-12T04:07:52.413Z,103837.41
2023-02-12T04:10:25.383Z,103837.41
2023-02-12T04:13:08.190Z,103840.31
2023-02-12T04:16:02.181Z,103843.91
2023-02-12T04:18:44.818Z,103842.19
2023-02-12T04:21:17.204Z,103849.53
2023-02-12T04:24:02.204Z,103850.56
2023-02-12T04:26:54.876Z,103861.44
2023-02-12T04:29:28.798Z,103866.88
2023-02-12T04:32:08.110Z,103873.38
2023-02-12T04:34:53.232Z,103872.72
2023-02-12T04:37:31.425Z,103877.13
2023-02-12T04:39:59.837Z,103876.50
2023-02-12T04:42:26.381Z,103876.50
2023-02-12T04:44:53.072Z,103872.09
2023-02-12T04:47:19.603Z,103878.56
2023-02-12T04:49:46.087Z,103881.28
2023-02-12T04:52:12.539Z,103873.13
2023-02-12T04:54:39.072Z,103875.84
2023-02-12T04:57:05.785Z,103879.63
2023-02-12T04:59:32.334Z,103872.28
2023-02-12T05:01:58.900Z,103871.25
2023-02-12T05:04:25.411Z,103869.19
2023-02-12T05:06:51.959Z,103874.22
2023-02-12T05:09:20.196Z,103879.03
2023-02-12T05:11:46.747Z,103865.03
2023-02-12T05:14:13.263Z,103870.06
2023-02-12T05:16:39.938Z,103868.19
2023-02-12T05:19:06.435Z,103860.66
2023-02-12T05:21:32.947Z,103867.56
2023-02-12T05:24:01.701Z,103865.50
2023-02-12T05:26:28.264Z,103861.72
2023-02-12T05:28:54.771Z,103869.69
2023-02-12T05:31:22.347Z,103870.50
2023-02-12T05:33:50.225Z,103864.03
2023-02-12T05:36:19.985Z,103865.72
2023-02-12T05:38:47.009Z,103867.38
2023-02-12T05:41:16.825Z,103867.19
2023-02-12T05:43:44.333Z,103859.88
2023-02-12T05:46:12.203Z,103876.81
2023-02-12T05:48:39.593Z,103869.69
2023-02-12T05:51:12.197Z,103873.03
2023-02-12T05:53:40.933Z,103883.75
2023-02-12T05:56:13.669Z,103879.97
2023-02-12T05:58:42.350Z,103873.47
2023-02-12T06:01:15.238Z,103875.16
2023-02-12T06:03:42.323Z,103872.44
2023-02-12T06:06:08.861Z,103873.28
2023-02-12T06:08:35.548Z,103883.94
2023-02-12T06:11:08.539Z,103871.19
2023-02-12T06:13:35.255Z,103868.28
2023-02-12T06:16:02.274Z,103868.88
2023-02-12T06:18:28.882Z,103875.81
2023-02-12T06:20:55.468Z,103886.28
2023-02-12T06:23:23.048Z,103880.63
2023-02-12T06:25:50.786Z,103874.34
2023-02-12T06:28:17.602Z,103870.56
2023-02-12T06:30:44.398Z,103872.28
2023-02-12T06:33:10.907Z,103871.22
2023-02-12T06:35:37.728Z,103871.84
2023-02-12T06:38:04.578Z,103868.94
2023-02-12T06:40:31.145Z,103875.22
2023-02-12T06:42:57.848Z,103876.25
2023-02-12T06:45:24.410Z,103868.94
2023-02-12T06:47:51.978Z,103871.44
2023-02-12T06:50:18.796Z,103872.50
2023-02-12T06:52:45.326Z,103868.53
2023-02-12T06:55:11.893Z,103890.09
2023-02-12T06:57:38.452Z,103883.59
2023-02-12T07:00:05.885Z,103887.78
2023-02-12T07:02:32.466Z,103888.84
2023-02-12T07:04:58.968Z,103902.06
2023-02-12T07:07:25.542Z,103891.16
2023-02-12T07:09:52.010Z,103895.75
2023-02-12T07:12:18.537Z,103909.16
2023-02-12T07:14:45.032Z,103906.22
2023-02-12T07:17:11.551Z,103905.19
2023-02-12T07:19:38.124Z,103907.94
2023-02-12T07:22:04.847Z,103908.75
2023-02-12T07:24:31.396Z,103916.94
2023-02-12T07:26:57.980Z,103922.19
2023-02-12T07:29:24.553Z,103922.19
2023-02-12T07:31:51.297Z,103929.31
2023-02-12T07:34:17.873Z,103920.09
2023-02-12T07:36:44.466Z,103921.56
2023-02-12T07:39:12.540Z,103921.38
2023-02-12T07:41:39.013Z,103934.16
2023-02-12T07:44:10.321Z,103928.72
2023-02-12T07:46:48.977Z,103938.53
2023-02-12T07:49:18.328Z,103941.28
2023-02-12T07:51:45.216Z,103938.31
2023-02-12T07:54:12.670Z,103942.75
2023-02-12T07:56:40.866Z,103945.03
2023-02-12T07:59:13.646Z,103940.66
2023-02-12T08:01:43.166Z,103940.66
2023-02-12T08:04:15.835Z,103928.06
2023-02-12T08:06:44.959Z,103927.84
2023-02-12T08:09:14.029Z,103928.91
2023-02-12T08:11:42.461Z,103940.66
2023-02-12T08:14:11.993Z,103939.41
2023-02-12T08:16:40.618Z,103933.72
2023-02-12T08:19:17.495Z,103938.34
2023-02-12T08:21:47.390Z,103950.06
2023-02-12T08:24:14.095Z,103940.22
2023-02-12T08:26:40.894Z,103946.53
2023-02-12T08:29:11.409Z,103948.19
2023-02-12T08:31:39.502Z,103938.34
2023-02-12T08:34:06.425Z,103936.28
2023-02-12T08:36:39.636Z,103950.50
2023-02-12T08:39:08.167Z,103941.28
2023-02-12T08:41:35.259Z,103948.63
2023-02-12T08:44:04.218Z,103960.34
2023-02-12T08:46:34.492Z,103946.94
2023-02-12T08:49:04.017Z,103966.66
2023-02-12T08:51:34.187Z,103955.75
2023-02-12T08:54:03.155Z,103961.00
2023-02-12T08:56:31.843Z,103959.94
2023-02-12T08:59:00.145Z,103967.91
2023-02-12T09:01:28.926Z,103969.78
2023-02-12T09:03:55.872Z,103968.09
2023-02-12T09:06:24.954Z,103962.66
2023-02-12T09:08:53.555Z,103969.16
2023-02-12T09:11:30.588Z,103967.06
2023-02-12T09:14:03.931Z,103975.03
2023-02-12T09:16:32.867Z,103973.16
2023-02-12T09:18:59.652Z,103982.16
2023-02-12T09:21:26.423Z,103975.88
2023-02-12T09:23:53.537Z,103989.50
2023-02-12T09:26:22.464Z,103983.22
2023-02-12T09:28:50.392Z,103984.03
2023-02-12T09:31:23.175Z,103991.16
2023-02-12T09:33:52.767Z,103994.53
2023-02-12T09:36:21.459Z,103987.19
2023-02-12T09:38:49.336Z,103996.22
2023-02-12T09:41:38.122Z,103988.88
2023-02-12T09:44:11.566Z,103994.53
2023-02-12T09:46:53.767Z,103984.47
2023-02-12T09:49:40.866Z,103980.06
2023-02-12T09:52:16.923Z,103982.59
2023-02-12T09:54:44.604Z,103981.53
2023-02-12T09:57:40.348Z,103985.94
2023-02-12T10:00:14.880Z,103981.53
2023-02-12T10:02:41.446Z,103977.97
2023-02-12T10:05:17.674Z,103979.63
2023-02-12T10:08:02.694Z,103985.09
2023-02-12T10:10:29.115Z,103976.09
2023-02-12T10:13:05.903Z,103982.38
2023-02-12T10:16:10.756Z,103977.13
2023-02-12T10:19:16.393Z,103981.53
2023-02-12T10:22:04.772Z,103986.78
2023-02-12T10:24:56.873Z,103984.50
2023-02-12T10:27:38.230Z,103979.03
2023-02-12T10:30:19.719Z,103989.09
2023-02-12T10:32:50.871Z,103983.66
2023-02-12T10:35:20.381Z,103978.81
2023-02-12T10:37:57.168Z,103976.75
2023-02-12T10:40:39.023Z,103983.84
2023-02-12T10:43:05.538Z,103985.53
2023-02-12T10:45:35.751Z,103988.06
2023-02-12T10:48:09.967Z,103981.56
2023-02-12T10:50:57.820Z,103978.19
2023-02-12T10:53:29.629Z,103988.91
2023-02-12T10:56:11.711Z,103983.88
2023-02-12T10:58:50.172Z,103983.66
2023-02-12T11:01:38.699Z,103975.06
2023-02-12T11:04:25.266Z,103984.06
2023-02-12T11:07:00.679Z,103983.03
2023-02-12T11:09:45.249Z,103975.06
2023-02-12T11:12:48.322Z,103976.75
2023-02-12T11:15:22.000Z,103984.91
2023-02-12T11:18:26.230Z,103980.28
2023-02-12T11:20:57.353Z,103967.50
2023-02-12T11:23:33.558Z,103969.41
2023-02-12T11:26:22.898Z,103976.75
2023-02-12T11:28:54.003Z,103972.13
2023-02-12T11:31:24.015Z,103973.81
2023-02-12T11:34:15.465Z,103966.66
2023-02-12T11:36:45.437Z,103971.72
2023-02-12T11:39:19.530Z,103965.00
2023-02-12T11:41:53.163Z,103963.94
2023-02-12T11:44:36.097Z,103963.94
2023-02-12T11:47:10.471Z,103955.78
2023-02-12T11:49:44.403Z,103957.44
2023-02-12T11:52:33.433Z,103944.88
2023-02-12T11:55:05.235Z,103958.31
2023-02-12T11:57:53.242Z,103955.59
2023-02-12T12:00:28.465Z,103950.13
2023-02-12T12:03:15.520Z,103942.78
2023-02-12T12:05:51.304Z,103948.03
2023-02-12T12:08:44.618Z,103942.56
2023-02-12T12:11:23.915Z,103950.75
2023-02-12T12:13:59.273Z,103941.50
2023-02-12T12:17:07.636Z,103941.09
2023-02-12T12:19:52.579Z,103949.09
2023-02-12T12:22:19.002Z,103939.00
2023-02-12T12:24:51.170Z,103935.44
2023-02-12T12:27:53.354Z,103939.19
2023-02-12T12:30:34.157Z,103936.47
2023-02-12T12:33:05.879Z,103943.63
2023-02-12T12:35:56.863Z,103938.78
2023-02-12T12:38:44.876Z,103930.59
2023-02-12T12:41:26.484Z,103934.16
2023-02-12T12:44:30.642Z,103932.50
2023-02-12T12:47:15.998Z,103935.22
2023-02-12T12:49:54.603Z,103927.06
2023-02-12T12:52:40.399Z,103923.25
2023-02-12T12:55:46.568Z,103916.75
2023-02-12T12:58:34.442Z,103907.56
2023-02-12T13:01:06.385Z,103914.66
2023-02-12T13:03:41.968Z,103912.59
2023-02-12T13:06:24.540Z,103912.59
2023-02-12T13:08:50.974Z,103914.28
2023-02-12T13:12:05.324Z,103906.09
2023-02-12T13:14:55.656Z,103905.88
2023-02-12T13:17:49.001Z,103900.44
2023-02-12T13:20:15.489Z,103901.25
2023-02-12T13:23:04.664Z,103893.94
2023-02-12T13:25:38.590Z,103890.59
2023-02-12T13:28:10.468Z,103891.41
2023-02-12T13:30:57.837Z,103894.13
2023-02-12T13:33:36.714Z,103882.19
2023-02-12T13:36:06.201Z,103886.59
2023-02-12T13:38:37.914Z,103890.16
2023-02-12T13:41:10.533Z,103882.19
2023-02-12T13:43:45.475Z,103877.59
2023-02-12T13:46:25.193Z,103871.06
2023-02-12T13:49:08.850Z,103870.25
2023-02-12T13:51:53.329Z,103876.53
2023-02-12T13:54:49.084Z,103882.81
2023-02-12T13:57:19.207Z,103878.19
2023-02-12T13:59:58.168Z,103869.78
2023-02-12T14:02:28.704Z,103874.41
2023-02-12T14:05:15.798Z,103872.50
2023-02-12T14:07:44.495Z,103880.91
2023-02-12T14:10:37.365Z,103865.41
2023-02-12T14:13:15.308Z,103857.22
2023-02-12T14:15:51.127Z,103852.81
2023-02-12T14:18:32.733Z,103863.72
2023-02-12T14:21:11.323Z,103859.09
2023-02-12T14:23:46.029Z,103849.25
2023-02-12T14:26:18.587Z,103848.44
2023-02-12T14:28:54.984Z,103844.88
2023-02-12T14:31:31.638Z,103857.63
2023-02-12T14:34:11.273Z,103844.88
2023-02-12T14:36:43.942Z,103839.41
2023-02-12T14:39:19.689Z,103839.19
2023-02-12T14:42:16.095Z,103840.03
2023-02-12T14:44:56.094Z,103848.19
2023-02-12T14:47:28.683Z,103843.81
2023-02-12T14:50:01.347Z,103839.19
2023-02-12T14:52:32.227Z,103839.19
2023-02-12T14:55:02.679Z,103836.69
2023-02-12T14:57:36.938Z,103833.97
2023-02-12T15:00:18.827Z,103839.41
2023-02-12T15:02:51.897Z,103840.44
2023-02-12T15:05:24.490Z,103844.22
2023-02-12T15:07:56.255Z,103838.78
2023-02-12T15:10:28.182Z,103843.41
2023-02-12T15:13:25.004Z,103825.16
2023-02-12T15:16:07.344Z,103826.22
2023-02-12T15:18:56.739Z,103825.16
2023-02-12T15:21:26.671Z,103819.03
2023-02-12T15:24:11.430Z,103829.09
2023-02-12T15:26:48.168Z,103827.44
2023-02-12T15:29:25.874Z,103818.63
2023-02-12T15:31:58.605Z,103835.84
2023-02-12T15:34:28.995Z,103833.09
2023-02-12T15:36:59.011Z,103822.81
2023-02-12T15:39:27.877Z,103824.06
2023-02-12T15:41:54.700Z,103822.19
2023-02-12T15:44:29.552Z,103823.22
2023-02-12T15:47:17.203Z,103822.63
2023-02-12T15:49:44.290Z,103818.84
2023-02-12T15:52:10.782Z,103818.00
2023-02-12T15:54:38.776Z,103816.13
2023-02-12T15:57:21.618Z,103819.91
2023-02-12T15:59:53.504Z,103817.38
2023-02-12T16:02:30.178Z,103820.72
2023-02-12T16:04:58.004Z,103815.50
2023-02-12T16:07:26.509Z,103818.22
2023-02-12T16:09:54.085Z,103813.19
2023-02-12T16:12:24.661Z,103820.31
2023-02-12T16:14:55.378Z,103810.47
2023-02-12T16:17:24.920Z,103813.19
2023-02-12T16:20:04.402Z,103824.09
2023-02-12T16:22:34.230Z,103820.53
2023-02-12T16:25:01.904Z,103814.22
2023-02-12T16:27:34.686Z,103812.56
2023-02-12T16:30:05.348Z,103819.06
2023-02-12T16:32:43.465Z,103823.47
2023-02-12T16:35:09.903Z,103824.53
2023-02-12T16:37:36.363Z,103822.63
2023-02-12T16:40:15.550Z,103821.56
2023-02-12T16:42:48.255Z,103823.69
2023-02-12T16:45:26.920Z,103825.59
2023-02-12T16:48:08.842Z,103816.56
2023-02-12T16:50:39.758Z,103818.44
2023-02-12T16:53:22.471Z,103822.22
2023-02-12T16:55:49.609Z,103815.09
2023-02-12T16:58:16.068Z,103821.38
2023-02-12T17:00:42.688Z,103822.22
2023-02-12T17:03:14.221Z,103827.91
2023-02-12T17:05:42.708Z,103824.13
2023-02-12T17:08:17.835Z,103824.34
2023-02-12T17:10:48.265Z,103837.75
2023-02-12T17:13:16.227Z,103830.81
2023-02-12T17:15:56.396Z,103826.19
2023-02-12T17:18:24.382Z,103829.97
2023-02-12T17:20:57.063Z,103826.44
2023-02-12T17:23:24.991Z,103830.22
2023-02-12T17:25:52.114Z,103829.38
2023-02-12T17:28:18.749Z,103837.56
2023-02-12T17:30:45.659Z,103824.75
2023-02-12T17:33:12.313Z,103834.81
2023-02-12T17:35:39.251Z,103834.81
2023-02-12T17:38:06.764Z,103838.59
2023-02-12T17:40:35.694Z,103836.91
2023-02-12T17:43:02.926Z,103839.41
2023-02-12T17:45:29.478Z,103848.66
2023-02-12T17:47:56.065Z,103855.38
2023-02-12T17:50:22.605Z,103851.19
2023-02-12T17:52:49.242Z,103857.03
2023-02-12T17:55:17.911Z,103841.75
2023-02-12T17:57:44.432Z,103857.25
2023-02-12T18:00:12.962Z,103859.97
2023-02-12T18:02:39.508Z,103853.91
2023-02-12T18:05:06.542Z,103854.50
2023-02-12T18:07:34.786Z,103853.91
2023-02-12T18:10:01.456Z,103857.47
2023-02-12T18:12:28.020Z,103863.75
2023-02-12T18:15:02.102Z,103855.78
2023-02-12T18:17:29.152Z,103852.25
2023-02-12T18:19:56.004Z,103853.69
2023-02-12T18:22:22.674Z,103852.44
2023-02-12T18:24:49.342Z,103845.09
2023-02-12T18:27:18.522Z,103848.66
2023-02-12T18:29:45.601Z,103854.09
2023-02-12T18:32:15.885Z,103855.16
2023-02-12T18:34:43.611Z,103844.25
2023-02-12T18:37:12.094Z,103848.88
2023-02-12T18:39:39.024Z,103844.25
2023-02-12T18:42:06.718Z,103842.59
2023-02-12T18:44:33.657Z,103847.19
2023-02-12T18:47:00.418Z,103836.50
2023-02-12T18:49:28.137Z,103831.88
2023-02-12T18:51:54.857Z,103840.91
2023-02-12T18:54:21.817Z,103830.22
2023-02-12T18:56:51.788Z,103832.94
2023-02-12T18:59:18.589Z,103836.72
2023-02-12T19:01:46.355Z,103835.06
2023-02-12T19:04:16.278Z,103838.38
2023-02-12T19:06:46.168Z,103835.88
2023-02-12T19:09:16.548Z,103832.09
2023-02-12T19:11:46.522Z,103831.28
2023-02-12T19:14:14.139Z,103829.59
2023-02-12T19:16:41.093Z,103839.44
2023-02-12T19:19:08.067Z,103835.88
2023-02-12T19:21:35.118Z,103823.50
2023-02-12T19:24:03.337Z,103837.97
2023-02-12T19:26:31.246Z,103830.03
2023-02-12T19:28:58.512Z,103832.94
2023-02-12T19:31:28.271Z,103831.91
2023-02-12T19:34:00.588Z,103829.19
2023-02-12T19:36:29.704Z,103835.06
2023-02-12T19:38:56.426Z,103825.63
2023-02-12T19:41:26.025Z,103823.94
2023-02-12T19:43:54.637Z,103826.66
2023-02-12T19:46:21.983Z,103825.81
2023-02-12T19:48:49.125Z,103815.75
2023-02-12T19:51:18.546Z,103821.22
2023-02-12T19:53:45.732Z,103830.44
2023-02-12T19:56:12.813Z,103824.75
2023-02-12T19:58:39.783Z,103814.09
2023-02-12T20:01:18.708Z,103815.16
2023-02-12T20:03:47.319Z,103814.94
2023-02-12T20:06:18.359Z,103826.03
2023-02-12T20:08:45.179Z,103820.59
2023-02-12T20:11:15.349Z,103813.25
2023-02-12T20:13:42.153Z,103818.91
2023-02-12T20:16:11.932Z,103818.91
2023-02-12T20:18:39.034Z,103816.41
2023-02-12T20:21:11.646Z,103822.25
2023-02-12T20:23:38.542Z,103821.00
2023-02-12T20:26:07.037Z,103806.56
2023-02-12T20:28:34.803Z,103813.91
2023-02-12T20:31:11.720Z,103814.72
2023-02-12T20:33:39.053Z,103813.91
2023-02-12T20:36:06.410Z,103807.81
2023-02-12T20:38:32.996Z,103805.09
2023-02-12T20:41:04.136Z,103810.75
2023-02-12T20:43:32.364Z,103810.34
2023-02-12T20:46:11.763Z,103816.22
2023-02-12T20:48:38.483Z,103823.53
2023-02-12T20:51:13.508Z,103818.09
2023-02-12T20:53:41.292Z,103821.66
2023-02-12T20:56:16.359Z,103827.28
2023-02-12T20:58:45.121Z,103817.44
2023-02-12T21:01:24.552Z,103817.44
2023-02-12T21:03:53.733Z,103823.97
2023-02-12T21:06:21.958Z,103816.84
2023-02-12T21:08:48.565Z,103817.03
2023-02-12T21:11:19.519Z,103821.66
2023-02-12T21:13:58.938Z,103828.97
2023-02-12T21:16:33.855Z,103838.22
2023-02-12T21:19:00.757Z,103831.72
2023-02-12T21:21:32.652Z,103823.72
2023-02-12T21:24:00.542Z,103829.19
2023-02-12T21:26:29.642Z,103832.97
2023-02-12T21:28:57.982Z,103831.28
2023-02-12T21:31:30.498Z,103818.50
2023-02-12T21:33:58.951Z,103814.31
2023-02-12T21:36:34.825Z,103819.75
2023-02-12T21:39:01.995Z,103813.47
2023-02-12T21:41:36.902Z,103810.97
2023-02-12T21:44:08.424Z,103816.41
2023-02-12T21:46:36.233Z,103818.50
2023-02-12T21:49:03.601Z,103823.13
2023-02-12T21:51:36.204Z,103812.44
2023-02-12T21:54:05.697Z,103822.50
2023-02-12T21:56:32.891Z,103815.34
2023-02-12T21:58:59.661Z,103821.63
2023-02-12T22:01:29.438Z,103828.13
2023-02-12T22:03:56.044Z,103817.47
2023-02-12T22:06:24.647Z,103821.22
2023-02-12T22:08:53.022Z,103815.75
2023-02-12T22:11:21.543Z,103809.47
2023-02-12T22:13:48.436Z,103814.09
2023-02-12T22:16:17.827Z,103810.53
2023-02-12T22:18:45.387Z,103808.00
2023-02-12T22:21:14.241Z,103804.44
2023-02-12T22:23:41.450Z,103797.31
2023-02-12T22:26:15.391Z,103799.41
2023-02-12T22:28:48.371Z,103790.41
2023-02-12T22:31:21.902Z,103795.88
2023-02-12T22:33:54.320Z,103801.31
2023-02-12T22:36:22.072Z,103796.06
2023-02-12T22:38:49.031Z,103792.50
2023-02-12T22:41:16.212Z,103788.94
2023-02-12T22:43:43.008Z,103801.72
2023-02-12T22:46:12.236Z,103787.47
2023-02-12T22:48:39.011Z,103793.97
2023-02-12T22:51:12.359Z,103799.41
2023-02-12T22:53:39.037Z,103788.75
2023-02-12T22:56:06.892Z,103793.13
2023-02-12T22:58:34.057Z,103787.88
2023-02-12T23:01:09.492Z,103791.66
2023-02-12T23:03:39.558Z,103784.53
2023-02-12T23:06:12.301Z,103784.72
2023-02-12T23:08:39.540Z,103792.06
2023-02-12T23:11:08.384Z,103791.22
2023-02-12T23:13:35.866Z,103785.78
2023-02-12T23:16:03.155Z,103792.28
2023-02-12T23:18:29.659Z,103791.44
2023-02-12T23:20:56.519Z,103787.06
2023-02-12T23:23:23.191Z,103790.81
2023-02-12T23:25:50.330Z,103786.19
2023-02-12T23:28:17.612Z,103780.13
2023-02-12T23:33:10.702Z,103786.63
2023-02-12T23:38:04.521Z,103786.00
2023-02-12T23:40:34.633Z,103768.00
2023-02-12T23:43:01.211Z,103773.44
2023-02-12T23:45:28.322Z,103777.00
2023-02-12T23:47:55.109Z,103768.19
2023-02-12T23:50:22.232Z,103770.06
2023-02-12T23:52:48.849Z,103772.78
2023-02-12T23:55:15.980Z,103767.34
2023-02-12T23:57:42.507Z,103768.41
